createdAt,value
2019-06-08T00:02:22.971Z,99.90
2019-06-08T00:04:52.954Z,99.90
2019-06-08T00:07:24.385Z,99.90
2019-06-08T00:09:54.069Z,99.90
2019-06-08T00:12:23.776Z,99.90
2019-06-08T00:14:53.502Z,99.90
2019-06-08T00:17:34.573Z,99.90
2019-06-08T00:19:54.974Z,99.90
2019-06-08T00:22:26.305Z,99.90
2019-06-08T00:24:55.935Z,99.90
2019-06-08T00:27:25.624Z,99.90
2019-06-08T00:29:55.336Z,99.90
2019-06-08T00:32:25.042Z,99.90
2019-06-08T00:34:54.749Z,99.90
2019-06-08T00:37:25.003Z,99.90
2019-06-08T00:39:55.284Z,99.90
2019-06-08T00:42:25.520Z,99.90
2019-06-08T00:44:55.398Z,99.90
2019-06-08T00:47:25.068Z,99.90
2019-06-08T00:49:54.785Z,99.90
2019-06-08T00:52:25.584Z,99.90
2019-06-08T00:54:55.493Z,99.90
2019-06-08T00:57:26.051Z,99.90
2019-06-08T00:59:55.929Z,99.90
2019-06-08T01:02:26.828Z,99.90
2019-06-08T01:04:56.687Z,99.90
2019-06-08T01:07:26.395Z,99.90
2019-06-08T01:09:56.042Z,99.90
2019-06-08T01:12:37.991Z,99.90
2019-06-08T01:15:09.243Z,99.90
2019-06-08T01:17:39.049Z,99.90
2019-06-08T01:20:09.364Z,99.90
2019-06-08T01:22:39.099Z,99.90
2019-06-08T01:25:09.041Z,99.90
2019-06-08T01:27:38.813Z,99.90
2019-06-08T01:30:09.410Z,99.90
2019-06-08T01:32:39.100Z,99.90
2019-06-08T01:35:09.416Z,99.90
2019-06-08T01:37:39.217Z,99.90
2019-06-08T01:40:09.212Z,99.90
2019-06-08T01:42:38.933Z,99.90
2019-06-08T01:45:10.019Z,99.90
2019-06-08T01:47:39.771Z,99.90
2019-06-08T01:50:09.471Z,99.90
2019-06-08T01:52:39.186Z,99.90
2019-06-08T01:55:08.949Z,99.90
2019-06-08T01:57:38.720Z,99.90
2019-06-08T02:00:29.363Z,99.90
2019-06-08T02:02:40.532Z,99.90
2019-06-08T02:05:10.371Z,99.90
2019-06-08T02:07:40.093Z,99.90
2019-06-08T02:10:11.055Z,99.90
2019-06-08T02:12:40.777Z,99.90
2019-06-08T02:15:11.073Z,99.90
2019-06-08T02:17:40.791Z,99.90
2019-06-08T02:20:11.096Z,99.90
2019-06-08T02:22:40.884Z,99.90
2019-06-08T02:25:10.900Z,99.90
2019-06-08T02:27:40.663Z,99.90
2019-06-08T02:30:12.605Z,99.90
2019-06-08T02:32:42.330Z,99.90
2019-06-08T02:35:12.456Z,99.90
2019-06-08T02:37:42.201Z,99.90
2019-06-08T02:40:12.139Z,99.90
2019-06-08T02:42:41.854Z,99.90
2019-06-08T02:45:12.149Z,99.90
2019-06-08T02:47:42.037Z,99.90
2019-06-08T02:50:12.563Z,99.90
2019-06-08T02:52:44.457Z,99.90
2019-06-08T02:55:14.268Z,99.90
2019-06-08T02:57:44.909Z,99.90
2019-06-08T03:00:15.735Z,99.90
2019-06-08T03:02:46.544Z,99.90
2019-06-08T03:05:16.604Z,99.90
2019-06-08T03:07:48.625Z,99.90
2019-06-08T03:10:18.533Z,99.90
2019-06-08T03:12:50.844Z,99.90
2019-06-08T03:15:33.741Z,99.90
2019-06-08T03:18:01.510Z,99.90
2019-06-08T03:20:31.616Z,99.90
2019-06-08T03:23:01.864Z,99.90
2019-06-08T03:25:33.255Z,99.90
2019-06-08T03:28:02.915Z,99.90
2019-06-08T03:30:37.172Z,99.90
2019-06-08T03:33:04.059Z,99.90
2019-06-08T03:35:36.015Z,99.90
2019-06-08T03:38:05.228Z,99.90
2019-06-08T03:40:35.897Z,99.90
2019-06-08T03:43:10.490Z,99.90
2019-06-08T03:45:40.769Z,99.90
2019-06-08T03:48:10.980Z,99.90
2019-06-08T03:50:42.065Z,99.90
2019-06-08T03:53:12.196Z,99.90
2019-06-08T03:55:43.059Z,99.90
2019-06-08T03:58:13.389Z,99.90
2019-06-08T04:00:44.417Z,99.90
2019-06-08T04:03:14.208Z,99.90
2019-06-08T04:05:44.905Z,99.90
2019-06-08T04:08:15.322Z,99.90
2019-06-08T04:10:46.683Z,99.90
2019-06-08T04:13:16.480Z,99.90
2019-06-08T04:15:46.889Z,99.90
2019-06-08T04:18:17.109Z,99.90
2019-06-08T04:20:48.820Z,99.90
2019-06-08T04:23:18.402Z,99.90
2019-06-08T04:25:48.154Z,99.90
2019-06-08T04:28:17.868Z,99.90
2019-06-08T04:30:49.913Z,99.70
2019-06-08T04:33:18.996Z,98.40
2019-06-08T04:35:50.611Z,96.60
2019-06-08T04:38:20.210Z,95.20
2019-06-08T04:40:50.190Z,93.90
2019-06-08T04:43:20.113Z,92.60
2019-06-08T04:45:50.024Z,92.80
2019-06-08T04:48:19.790Z,92.20
2019-06-08T04:50:49.805Z,93.30
2019-06-08T04:53:19.780Z,95.20
2019-06-08T04:55:49.501Z,97.80
2019-06-08T04:58:19.186Z,99.90
2019-06-08T05:00:50.813Z,99.90
2019-06-08T05:03:20.382Z,99.90
2019-06-08T05:05:50.291Z,99.90
2019-06-08T05:08:20.907Z,99.90
2019-06-08T05:10:50.574Z,99.90
2019-06-08T05:13:20.315Z,99.90
2019-06-08T05:15:50.413Z,99.90
2019-06-08T05:18:20.337Z,99.90
2019-06-08T05:20:51.445Z,99.90
2019-06-08T05:23:21.391Z,99.90
2019-06-08T05:25:51.070Z,99.90
2019-06-08T05:28:20.787Z,99.90
2019-06-08T05:30:50.543Z,99.90
2019-06-08T05:33:20.241Z,99.90
2019-06-08T05:35:49.986Z,99.90
2019-06-08T05:38:19.702Z,99.90
2019-06-08T05:40:52.702Z,99.90
2019-06-08T05:43:22.579Z,99.90
2019-06-08T05:45:52.271Z,99.90
2019-06-08T05:48:21.985Z,99.90
2019-06-08T05:51:03.002Z,99.90
2019-06-08T05:53:23.700Z,99.90
2019-06-08T05:55:53.399Z,99.90
2019-06-08T05:58:23.104Z,99.90
2019-06-08T06:00:52.812Z,99.90
2019-06-08T06:03:22.572Z,99.90
2019-06-08T06:05:52.350Z,99.90
2019-06-08T06:08:22.030Z,99.90
2019-06-08T06:10:51.766Z,99.90
2019-06-08T06:13:21.666Z,99.90
2019-06-08T06:15:51.823Z,99.90
2019-06-08T06:18:21.801Z,99.90
2019-06-08T06:20:51.794Z,99.90
2019-06-08T06:23:21.995Z,99.90
2019-06-08T06:25:51.872Z,99.90
2019-06-08T06:28:21.741Z,99.90
2019-06-08T06:30:52.250Z,99.90
2019-06-08T06:33:22.773Z,99.90
2019-06-08T06:35:53.201Z,99.90
2019-06-08T06:38:23.022Z,99.90
2019-06-08T06:40:53.210Z,99.90
2019-06-08T06:43:23.149Z,99.90
2019-06-08T06:45:52.957Z,99.90
2019-06-08T06:48:23.598Z,99.90
2019-06-08T06:50:53.578Z,99.90
2019-06-08T06:53:23.279Z,99.90
2019-06-08T06:55:53.411Z,99.90
2019-06-08T06:58:23.329Z,99.90
2019-06-08T07:00:53.785Z,99.90
2019-06-08T07:03:23.868Z,99.90
2019-06-08T07:05:54.179Z,99.90
2019-06-08T07:08:24.270Z,99.90
2019-06-08T07:10:55.055Z,99.90
2019-06-08T07:13:25.057Z,99.90
2019-06-08T07:15:58.015Z,99.90
2019-06-08T07:18:26.216Z,99.90
2019-06-08T07:20:56.024Z,99.90
2019-06-08T07:23:25.772Z,99.90
2019-06-08T07:25:55.563Z,99.90
2019-06-08T07:28:25.350Z,99.90
2019-06-08T07:30:55.116Z,99.90
2019-06-08T07:33:24.818Z,99.90
2019-06-08T07:35:55.344Z,99.90
2019-06-08T07:38:25.255Z,99.90
2019-06-08T07:40:58.588Z,99.90
2019-06-08T07:43:26.356Z,99.90
2019-06-08T07:45:56.301Z,99.90
2019-06-08T07:48:26.112Z,99.90
2019-06-08T07:50:56.388Z,99.90
2019-06-08T07:53:26.650Z,99.90
2019-06-08T07:55:56.462Z,99.90
2019-06-08T07:58:26.235Z,99.90
2019-06-08T08:01:03.650Z,99.90
2019-06-08T08:03:27.401Z,99.90
2019-06-08T08:05:58.510Z,99.90
2019-06-08T08:08:28.402Z,99.90
2019-06-08T08:10:58.713Z,99.30
2019-06-08T08:13:29.484Z,99.10
2019-06-08T08:16:00.702Z,98.30
2019-06-08T08:18:30.620Z,98.90
2019-06-08T08:21:09.033Z,99.10
2019-06-08T08:23:31.786Z,98.10
2019-06-08T08:26:01.959Z,98.20
2019-06-08T08:28:31.786Z,97.30
2019-06-08T08:31:01.986Z,96.80
2019-06-08T08:33:31.923Z,97.00
2019-06-08T08:36:02.036Z,96.60
2019-06-08T08:38:31.900Z,95.20
2019-06-08T08:41:07.379Z,95.30
2019-06-08T08:43:32.981Z,95.80
2019-06-08T08:46:02.740Z,96.20
2019-06-08T08:48:32.616Z,95.60
2019-06-08T08:51:03.678Z,95.70
2019-06-08T08:53:33.744Z,96.60
2019-06-08T08:56:03.433Z,95.60
2019-06-08T08:58:33.190Z,95.50
2019-06-08T09:01:03.780Z,94.30
2019-06-08T09:03:33.985Z,93.30
2019-06-08T09:06:04.208Z,92.50
2019-06-08T09:08:34.580Z,92.80
2019-06-08T09:11:04.341Z,91.90
2019-06-08T09:13:34.094Z,91.20
2019-06-08T09:16:04.404Z,91.20
2019-06-08T09:18:34.643Z,91.60
2019-06-08T09:21:04.543Z,91.80
2019-06-08T09:23:34.356Z,92.30
2019-06-08T09:26:11.651Z,92.10
2019-06-08T09:28:35.560Z,91.50
2019-06-08T09:31:05.347Z,92.10
2019-06-08T09:33:35.098Z,92.20
2019-06-08T09:36:05.049Z,92.00
2019-06-08T09:38:35.678Z,92.60
2019-06-08T09:41:08.749Z,92.10
2019-06-08T09:43:38.798Z,92.10
2019-06-08T09:46:09.456Z,91.50
2019-06-08T09:48:40.576Z,92.00
2019-06-08T09:51:10.332Z,92.80
2019-06-08T09:53:41.588Z,93.10
2019-06-08T09:56:11.682Z,90.60
2019-06-08T09:58:41.412Z,90.90
2019-06-08T10:01:12.265Z,90.90
2019-06-08T10:03:42.254Z,90.40
2019-06-08T10:06:12.739Z,90.00
2019-06-08T10:08:42.961Z,87.10
2019-06-08T10:11:12.713Z,89.20
2019-06-08T10:13:43.495Z,89.50
2019-06-08T10:16:13.930Z,88.70
2019-06-08T10:18:43.788Z,84.70
2019-06-08T10:21:13.594Z,85.10
2019-06-08T10:23:43.645Z,81.40
2019-06-08T10:26:13.334Z,80.80
2019-06-08T10:28:43.199Z,80.50
2019-06-08T10:31:13.011Z,83.30
2019-06-08T10:33:42.817Z,86.80
2019-06-08T10:36:13.093Z,86.60
2019-06-08T10:38:43.258Z,87.10
2019-06-08T10:41:18.959Z,87.10
2019-06-08T10:43:44.773Z,89.20
2019-06-08T10:46:17.371Z,88.80
2019-06-08T10:48:48.451Z,88.30
2019-06-08T10:51:18.399Z,86.00
2019-06-08T10:53:52.670Z,84.80
2019-06-08T10:56:21.549Z,82.00
2019-06-08T10:58:51.419Z,81.10
2019-06-08T11:01:22.562Z,81.00
2019-06-08T11:03:52.361Z,81.70
2019-06-08T11:06:22.100Z,82.30
2019-06-08T11:08:51.815Z,81.80
2019-06-08T11:11:21.701Z,81.60
2019-06-08T11:13:51.397Z,81.10
2019-06-08T11:16:21.120Z,80.10
2019-06-08T11:18:51.162Z,79.80
2019-06-08T11:21:21.188Z,79.80
2019-06-08T11:24:06.114Z,79.70
2019-06-08T11:26:30.327Z,80.10
2019-06-08T11:29:01.558Z,81.30
2019-06-08T11:31:32.299Z,80.90
2019-06-08T11:34:12.739Z,83.00
2019-06-08T11:36:42.465Z,83.60
2019-06-08T11:39:12.833Z,85.40
2019-06-08T11:41:48.365Z,85.50
2019-06-08T11:44:18.164Z,87.50
2019-06-08T11:46:48.312Z,89.90
2019-06-08T11:49:18.696Z,91.20
2019-06-08T11:51:48.780Z,92.30
2019-06-08T11:54:34.492Z,93.30
2019-06-08T11:57:02.989Z,93.80
2019-06-08T11:59:43.394Z,94.10
2019-06-08T12:02:20.019Z,94.50
2019-06-08T12:04:57.285Z,94.00
2019-06-08T12:07:33.262Z,93.50
2019-06-08T12:10:12.508Z,93.70
2019-06-08T12:12:48.673Z,93.70
2019-06-08T12:15:24.544Z,93.60
2019-06-08T12:18:01.528Z,94.40
2019-06-08T12:20:37.672Z,94.40
2019-06-08T12:23:14.142Z,94.40
2019-06-08T12:25:43.958Z,94.90
2019-06-08T12:28:14.728Z,94.90
2019-06-08T12:30:44.452Z,94.80
2019-06-08T12:33:15.629Z,94.40
2019-06-08T12:35:47.599Z,93.80
2019-06-08T12:38:19.069Z,93.90
2019-06-08T12:40:54.944Z,93.40
2019-06-08T12:43:30.087Z,92.60
2019-06-08T12:46:08.245Z,91.90
2019-06-08T12:48:44.427Z,91.90
2019-06-08T12:51:21.325Z,91.30
2019-06-08T12:53:50.485Z,90.40
2019-06-08T12:56:23.945Z,90.60
2019-06-08T12:58:51.668Z,90.70
2019-06-08T13:01:23.264Z,88.70
2019-06-08T13:03:53.015Z,87.00
2019-06-08T13:06:28.345Z,86.00
2019-06-08T13:09:03.449Z,83.40
2019-06-08T13:11:39.878Z,80.90
2019-06-08T13:14:14.812Z,81.00
2019-06-08T13:16:53.047Z,77.90
2019-06-08T13:19:27.641Z,77.60
2019-06-08T13:21:58.278Z,80.90
2019-06-08T13:24:28.568Z,80.00
2019-06-08T13:26:58.319Z,80.00
2019-06-08T13:29:28.167Z,79.00
2019-06-08T13:31:58.674Z,79.40
2019-06-08T13:34:29.284Z,82.20
2019-06-08T13:36:59.016Z,82.70
2019-06-08T13:39:28.878Z,85.10
2019-06-08T13:41:58.602Z,85.00
2019-06-08T13:44:28.368Z,82.20
2019-06-08T13:46:58.047Z,81.60
2019-06-08T13:49:30.837Z,82.00
2019-06-08T13:51:59.716Z,82.70
2019-06-08T13:54:31.349Z,83.40
2019-06-08T13:57:00.905Z,84.00
2019-06-08T13:59:31.023Z,82.20
2019-06-08T14:02:01.579Z,83.20
2019-06-08T14:04:33.308Z,83.60
2019-06-08T14:07:03.086Z,83.70
2019-06-08T14:09:32.879Z,83.90
2019-06-08T14:12:02.650Z,85.40
2019-06-08T14:14:33.771Z,85.90
2019-06-08T14:17:03.713Z,86.50
2019-06-08T14:19:33.468Z,86.50
2019-06-08T14:22:03.208Z,88.30
2019-06-08T14:24:34.737Z,89.90
2019-06-08T14:27:09.905Z,90.60
2019-06-08T14:29:45.214Z,91.10
2019-06-08T14:32:22.360Z,91.60
2019-06-08T14:34:58.327Z,92.00
2019-06-08T14:37:38.085Z,92.80
2019-06-08T14:40:13.168Z,93.20
2019-06-08T14:42:48.543Z,93.50
2019-06-08T14:45:28.962Z,94.20
2019-06-08T14:48:03.425Z,95.10
2019-06-08T14:50:40.841Z,95.90
2019-06-08T14:53:19.730Z,97.10
2019-06-08T14:56:05.619Z,98.00
2019-06-08T14:58:35.189Z,98.60
2019-06-08T15:01:11.516Z,99.50
2019-06-08T15:03:48.216Z,99.80
2019-06-08T15:06:19.329Z,99.90
2019-06-08T15:08:50.378Z,99.90
2019-06-08T15:11:32.375Z,99.90
2019-06-08T15:14:04.431Z,99.90
2019-06-08T15:16:42.810Z,99.90
2019-06-08T15:19:18.406Z,99.90
2019-06-08T15:21:53.850Z,99.90
2019-06-08T15:24:31.332Z,99.90
2019-06-08T15:27:07.847Z,99.90
2019-06-08T15:29:43.402Z,99.90
2019-06-08T15:32:19.310Z,99.90
2019-06-08T15:34:52.037Z,99.90
2019-06-08T15:37:21.769Z,99.90
2019-06-08T15:39:52.745Z,99.90
2019-06-08T15:42:22.448Z,99.90
2019-06-08T15:44:52.303Z,99.90
2019-06-08T15:47:22.160Z,99.90
2019-06-08T15:49:59.821Z,99.90
2019-06-08T15:52:29.554Z,99.90
2019-06-08T15:55:01.357Z,99.90
2019-06-08T15:57:33.092Z,99.90
2019-06-08T16:00:01.362Z,99.90
2019-06-08T16:02:31.641Z,99.90
2019-06-08T16:05:01.745Z,99.90
2019-06-08T16:07:32.816Z,99.90
2019-06-08T16:10:02.933Z,99.90
2019-06-08T16:12:33.285Z,99.90
2019-06-08T16:15:03.552Z,99.90
2019-06-08T16:17:33.611Z,99.90
2019-06-08T16:20:03.475Z,99.90
2019-06-08T16:22:33.867Z,99.90
2019-06-08T16:25:04.136Z,99.90
2019-06-08T16:27:33.979Z,99.90
2019-06-08T16:30:09.094Z,99.90
2019-06-08T16:32:35.455Z,99.90
2019-06-08T16:35:06.063Z,99.90
2019-06-08T16:37:35.819Z,99.90
2019-06-08T16:40:05.787Z,99.90
2019-06-08T16:42:36.579Z,99.90
2019-06-08T16:45:07.701Z,99.90
2019-06-08T16:47:37.560Z,99.90
2019-06-08T16:50:07.372Z,99.90
2019-06-08T16:52:37.125Z,99.90
2019-06-08T16:55:07.111Z,99.90
2019-06-08T16:57:39.512Z,99.90
2019-06-08T17:02:41.368Z,99.90
2019-06-08T17:05:11.314Z,99.90
2019-06-08T17:07:41.028Z,99.90
2019-06-08T17:10:11.013Z,99.90
2019-06-08T17:12:43.117Z,99.90
2019-06-08T17:15:13.234Z,99.90
2019-06-08T17:17:45.200Z,99.90
2019-06-08T17:20:16.153Z,99.90
2019-06-08T17:22:49.262Z,99.90
2019-06-08T17:25:19.340Z,99.90
2019-06-08T17:27:49.101Z,99.90
2019-06-08T17:30:18.939Z,99.90
2019-06-08T17:32:48.708Z,99.90
2019-06-08T17:35:18.461Z,99.90
2019-06-08T17:37:49.223Z,99.90
2019-06-08T17:40:19.484Z,99.90
2019-06-08T17:42:49.660Z,99.90
2019-06-08T17:45:19.735Z,99.90
2019-06-08T17:47:49.520Z,99.90
2019-06-08T17:50:19.581Z,99.90
2019-06-08T17:52:49.295Z,99.90
2019-06-08T17:55:20.394Z,99.90
2019-06-08T17:57:53.514Z,99.90
2019-06-08T18:00:22.242Z,99.90
2019-06-08T18:02:51.996Z,99.90
2019-06-08T18:05:21.786Z,99.90
2019-06-08T18:07:51.552Z,99.90
2019-06-08T18:10:21.299Z,99.90
2019-06-08T18:12:51.053Z,99.90
2019-06-08T18:15:20.881Z,99.90
2019-06-08T18:17:50.632Z,99.90
2019-06-08T18:20:21.603Z,99.90
2019-06-08T18:22:51.527Z,99.90
2019-06-08T18:25:22.707Z,99.90
2019-06-08T18:28:06.485Z,99.90
2019-06-08T18:30:27.656Z,99.90
2019-06-08T18:32:58.045Z,99.90
2019-06-08T18:35:28.050Z,99.90
2019-06-08T18:37:57.974Z,99.90
2019-06-08T18:40:28.527Z,99.90
2019-06-08T18:42:59.010Z,99.90
2019-06-08T18:45:30.251Z,99.90
2019-06-08T18:48:00.104Z,99.90
2019-06-08T18:50:29.802Z,99.90
2019-06-08T18:52:59.494Z,99.90
2019-06-08T18:55:29.286Z,99.90
2019-06-08T18:57:59.036Z,99.90
2019-06-08T19:00:40.004Z,99.90
2019-06-08T19:03:09.580Z,99.90
2019-06-08T19:05:42.562Z,99.90
2019-06-08T19:08:12.530Z,99.90
2019-06-08T19:10:42.792Z,99.90
2019-06-08T19:13:13.681Z,99.90
2019-06-08T19:15:46.127Z,99.90
2019-06-08T19:18:14.831Z,99.90
2019-06-08T19:20:47.298Z,99.90
2019-06-08T19:23:20.693Z,99.90
2019-06-08T19:25:49.362Z,99.90
2019-06-08T19:28:34.885Z,99.90
2019-06-08T19:30:51.648Z,99.90
2019-06-08T19:33:21.967Z,99.90
2019-06-08T19:35:53.878Z,99.90
2019-06-08T19:38:23.148Z,99.90
2019-06-08T19:40:52.939Z,99.90
2019-06-08T19:43:22.793Z,99.90
2019-06-08T19:45:52.619Z,99.90
2019-06-08T19:48:22.367Z,99.90
2019-06-08T19:50:54.164Z,99.90
2019-06-08T19:53:23.671Z,99.90
2019-06-08T19:55:54.195Z,99.90
2019-06-08T19:58:24.311Z,99.90
2019-06-08T20:00:54.933Z,99.90
2019-06-08T20:03:27.377Z,99.90
2019-06-08T20:05:56.174Z,99.90
2019-06-08T20:08:28.333Z,99.90
2019-06-08T20:10:57.515Z,99.90
2019-06-08T20:13:27.690Z,99.90
2019-06-08T20:16:01.493Z,99.90
2019-06-08T20:18:28.782Z,99.90
2019-06-08T20:20:58.812Z,99.90
2019-06-08T20:23:28.960Z,99.90
2019-06-08T20:26:00.679Z,99.90
2019-06-08T20:28:30.711Z,99.90
2019-06-08T20:31:01.200Z,99.90
2019-06-08T20:33:31.128Z,99.90
2019-06-08T20:36:00.926Z,99.90
2019-06-08T20:38:37.266Z,99.90
2019-06-08T20:41:03.387Z,99.90
2019-06-08T20:43:33.272Z,99.90
2019-06-08T20:46:03.129Z,99.90
2019-06-08T20:48:32.931Z,99.90
2019-06-08T20:51:02.686Z,99.90
2019-06-08T20:53:32.408Z,99.90
2019-06-08T20:56:02.147Z,99.90
2019-06-08T20:58:31.938Z,99.90
2019-06-08T21:01:01.767Z,99.90
2019-06-08T21:03:32.730Z,99.90
2019-06-08T21:06:02.552Z,99.90
2019-06-08T21:08:32.347Z,99.90
2019-06-08T21:11:02.216Z,99.90
2019-06-08T21:13:31.956Z,99.90
2019-06-08T21:16:01.695Z,99.90
2019-06-08T21:18:31.448Z,99.90
2019-06-08T21:21:01.291Z,99.90
2019-06-08T21:23:32.099Z,99.90
2019-06-08T21:26:02.305Z,99.90
2019-06-08T21:28:32.197Z,99.90
2019-06-08T21:31:08.347Z,99.90
2019-06-08T21:33:37.954Z,99.90
2019-06-08T21:36:09.300Z,99.90
2019-06-08T21:38:41.056Z,99.90
2019-06-08T21:41:11.354Z,99.90
2019-06-08T21:43:41.409Z,99.90
2019-06-08T21:46:11.099Z,99.90
2019-06-08T21:48:41.035Z,99.90
2019-06-08T21:51:10.966Z,99.90
2019-06-08T21:53:40.721Z,99.90
2019-06-08T21:56:10.370Z,99.90
2019-06-08T21:58:40.131Z,99.90
2019-06-08T22:01:10.551Z,99.90
2019-06-08T22:03:40.309Z,99.90
2019-06-08T22:06:10.054Z,99.90
2019-06-08T22:08:39.742Z,99.90
2019-06-08T22:11:09.506Z,99.90
2019-06-08T22:13:39.260Z,99.90
2019-06-08T22:16:11.494Z,99.90
2019-06-08T22:18:41.543Z,99.90
2019-06-08T22:21:11.277Z,99.90
2019-06-08T22:23:40.972Z,99.90
2019-06-08T22:26:10.779Z,99.90
2019-06-08T22:28:40.568Z,99.90
2019-06-08T22:31:10.348Z,99.90
2019-06-08T22:33:40.022Z,99.90
2019-06-08T22:36:09.744Z,99.90
2019-06-08T22:38:39.531Z,99.90
2019-06-08T22:41:09.416Z,99.90
2019-06-08T22:43:39.219Z,99.90
2019-06-08T22:46:09.560Z,99.90
2019-06-08T22:48:39.247Z,99.90
2019-06-08T22:51:09.016Z,99.90
2019-06-08T22:53:38.788Z,99.90
2019-06-08T22:56:08.556Z,99.90
2019-06-08T22:58:38.536Z,99.90
2019-06-08T23:01:11.410Z,99.90
2019-06-08T23:03:39.658Z,99.90
2019-06-08T23:06:09.413Z,99.90
2019-06-08T23:08:39.145Z,99.90
2019-06-08T23:11:08.883Z,99.90
2019-06-08T23:13:38.593Z,99.90
2019-06-08T23:16:09.000Z,99.90
2019-06-08T23:18:38.878Z,99.90
2019-06-08T23:21:09.413Z,99.90
2019-06-08T23:23:39.107Z,99.90
2019-06-08T23:26:10.391Z,99.90
2019-06-08T23:28:40.199Z,99.90
2019-06-08T23:31:21.370Z,99.90
2019-06-08T23:33:41.187Z,99.90
2019-06-08T23:38:42.216Z,99.90
2019-06-08T23:41:11.935Z,99.90
2019-06-08T23:43:41.599Z,99.90
2019-06-08T23:46:11.310Z,99.90
2019-06-08T23:48:41.040Z,99.90
2019-06-08T23:51:11.049Z,99.90
2019-06-08T23:53:41.033Z,99.90
2019-06-08T23:56:11.863Z,99.90
2019-06-08T23:58:41.910Z,99.90
